MMMXMROC

Guest
Details From MMMX - Licenciado Benito Juarez Intl
To MROC - San Jose Juan Santamaria Intl
Flight Number -
Tags Generated
Created
Modified
Stats Distance 1,032 nm / 1,911 km
Max Altitude 0 ft / 0 m
Waypoints 3
Social Downloads 2
Likes 0
Share VATSIM

Download

Looking for another format? Having issues loading an existing format? Contact us
Advertisement - Login to hide

Notes

Generated

Route

MMMX R1514 MROC

ID Type Via Altitude Latitude Longitude Leg Dist Tot Dist Heading (true) Name
O MMMX APT - 0 ft / 0 m 19.42701˚ -99.08585˚ - 0 nm - -
R1514 FIX - 0 ft / 0 m 9.98900˚ -84.22186˚ 1031 nm 1031 nm 121° / 125° -
O MROC APT - 0 ft / 0 m 9.98900˚ -84.22186˚ 0 nm 1031 nm 0° / 180° -

Altitude Profile

Advertisement - Login to hide

Weather


0- 5 10 15 20 25 30 35+ Temperature / ° C

Clouds and Precipitation
Forecast for 2017-12-14 12:00 UTC. Updated an hour ago

Ground ~20,000 ft ~40,000 ft Winds

MMMX

Details ICAO MMMX (MEX)
Name Licenciado Benito Juarez Intl
Region Mexico
Timezone America/Mexico_City (UTC-6.0)
Stats Elevation 7,316 ft / 2,230 m (AMSL)
Location 19.436308° -99.072104°
Runways 2
Magnetic Variation 4.648° E

METAR

MMMX 140748Z 08003KT 5SM SKC 09/03 A3027 NOSIG RMK HZY

Decode

TAF

Not found

Departure Runways

ID Width Length Bearing (true) Bearing (mag) Surface Threshold Offset Overrun Length
05L 148 ft / 45 m 12,951 ft / 3,948 m 59.25° 54.60° Asphalt 1,033 ft / 315 m 0 ft / 0 m
05R 148 ft / 45 m 12,800 ft / 3,902 m 59.26° 54.61° Asphalt 1,493 ft / 455 m 0 ft / 0 m
23L 148 ft / 45 m 12,800 ft / 3,902 m 239.28° 234.63° Asphalt 0 ft / 0 m 200 ft / 61 m
23R 148 ft / 45 m 12,951 ft / 3,948 m 239.27° 234.62° Asphalt 1,640 ft / 500 m 0 ft / 0 m

MROC

Details ICAO MROC (SJO)
Name San Jose Juan Santamaria Intl
Region Costa Rica
Timezone America/Costa_Rica (UTC-6.0)
Stats Elevation 3,021 ft / 921 m (AMSL)
Location 9.993927° -84.208884°
Runways 1
Magnetic Variation 1.718° W

METAR

MROC 140800Z 11017KT CAVOK 19/15 A2995 NOSIG

Decode

TAF

TAF MROC 132300Z 1400/1424 11012KT 9999 FEW035 TX25/1418Z TN17/1410Z TEMPO 1400/1424 10012G22KT

Decode

Destination Runways

ID Width Length Bearing (true) Bearing (mag) Surface Threshold Offset Overrun Length
07 151 ft / 46 m 9,994 ft / 3,046 m 68.91° 70.63° Asphalt 0 ft / 0 m 200 ft / 61 m
25 151 ft / 46 m 9,994 ft / 3,046 m 248.92° 250.64° Asphalt 1,969 ft / 600 m 200 ft / 61 m

Approach Navaids

Runway Type Ident Frequency Range Bearing (true) Bearing (mag) Slope Elevation
07 Localiser IOCO 109.50 MHz 18 nm / 33 km 68.89° 70.61° - 930 ft / 283 m (AMSL)
07 Glidescope IOCO 109.50 MHz 10 nm / 19 km 68.91° 70.63° 3.00° 930 ft / 283 m (AMSL)
07 DME IOCO 109.50 MHz 18 nm / 33 km - - - 930 ft / 283 m (AMSL)

Popular Alternatives